Hébergeur de fichiers indépendant

Nouvellecours 1 course.gpx

À propos

Type de fichier
Fichier GPX de 178 Ko (application/xml)
Confidentialité
Fichier public, envoyé le 20 mai 2010 à 12:42, depuis l'adresse IP 90.56.x.x (France)
Sécurité
Ne contient aucun Virus ou Malware connus - Dernière vérification: 2 jours
Statistiques
La présente page de téléchargement a été vue 628 fois depuis l'envoi du fichier
Page de téléchargement

Aperçu du fichier


<?xml version="1.0" encoding="utf-8"?>
<gpx xmlns:tc2="http://www.garmin.com/xmlschemas/TrainingCenterDatabase/v2" xmlns:xsi="http://www.w3.org/2001/XMLSchema-instance" xmlns:tp1="http://www.garmin.com/xmlschemas/TrackPointExtension/v1" xmlns="http://www.topografix.com/GPX/1/1" version="1.1" creator="TC2 to GPX11 XSLT stylesheet" xsi:schemaLocation="http://www.topografix.com/GPX/1/1 http://www.topografix.com/GPX/1/1/gpx.xsd http://www.garmin.com/xmlschemas/TrackPointExtension/v1 http://www.garmin.com/xmlschemas/TrackPointExtensionv1.xsd">
<trk>
<name>Nouvellecours 1</name>
<trkseg>
<trkpt lat="47.2282978" lon="4.9774014">
<ele>277.4776611</ele>
<time>2010-05-20T12:34:14Z</time>
<extensions>
<tp1:TrackPointExtension>
<tp1:hr>135</tp1:hr>
<tp1:cad>70</tp1:cad>
</tp1:TrackPointExtension>
</extensions>
</trkpt>
<trkpt lat="47.2282959" lon="4.9772509">
<ele>275.5550537</ele>
<time>2010-05-20T12:34:16Z</time>
<extensions>
<tp1:TrackPointExtension>
<tp1:hr>144</tp1:hr>
<tp1:cad>66</tp1:cad>
</tp1:TrackPointExtension>
</extensions>
</trkpt>
<trkpt lat="47.2283193" lon="4.9771018">
<ele>272.6711426</ele>
<time>2010-05-20T12:34:18Z</time>
<extensions>
<tp1:TrackPointExtension>
<tp1:hr>146</tp1:hr>
<tp1:cad>67</tp1:cad>
</tp1:TrackPointExtension>
</extensions>
</trkpt>
<trkpt lat="47.2284645" lon="4.9765703">
<ele>266.4224854</ele>
<time>2010-05-20T12:34:26Z</time>
<extensions>
<tp1:TrackPointExtension>
<tp1:hr>153</tp1:hr>
<tp1:cad>62</tp1:cad>
</tp1:TrackPointExtension>
</extensions>
</trkpt>
<trkpt lat="47.2285434" lon="4.9762653">
<ele>265.9418945</ele>
<time>2010-05-20T12:34:31Z</time>
<extensions>
<tp1:TrackPointExtension>
<tp1:hr>158</tp1:hr>
<tp1:cad>51</tp1:cad>
</tp1:TrackPointExtension>
</extensions>
</trkpt>
<trkpt lat="47.2286667" lon="4.9757826">
<ele>266.4224854</ele>
<time>2010-05-20T12:34:39Z</time>
<extensions>
<tp1:TrackPointExtension>
<tp1:hr>157</tp1:hr>
<tp1:cad>61</tp1:cad>
</tp1:TrackPointExtension>
</extensions>
</trkpt>
<trkpt lat="47.2288051" lon="4.9752353">
<ele>267.8645020</ele>
<time>2010-05-20T12:34:48Z</time>
<extensions>
<tp1:TrackPointExtension>
<tp1:hr>156</tp1:hr>
<tp1:cad>60</tp1:cad>
</tp1:TrackPointExtension>
</extensions>
</trkpt>
<trkpt lat="47.2289343" lon="4.9746795">
<ele>271.7097168</ele>
<time>2010-05-20T12:34:57Z</time>
<extensions>
<tp1:TrackPointExtension>
<tp1:hr>156</tp1:hr>
<tp1:cad>59</tp1:cad>
</tp1:TrackPointExtension>
</extensions>
</trkpt>
<trkpt lat="47.2290584" lon="4.9745780">
<ele>273.1518555</ele>
<time>2010-05-20T12:35:01Z</time>
<extensions>
<tp1:TrackPointExtension>
<tp1:hr>154</tp1:hr>
<tp1:cad>52</tp1:cad>
</tp1:TrackPointExtension>
</extensions>
</trkpt>
<trkpt lat="47.2294612" lon="4.9746694">
<ele>276.0356445</ele>
<time>2010-05-20T12:35:10Z</time>
<extensions>
<tp1:TrackPointExtension>
<tp1:hr>152</tp1:hr>
<tp1:cad>29</tp1:cad>
</tp1:TrackPointExtension>
</extensions>
</trkpt>
<trkpt lat="47.2296880" lon="4.9747351">
<ele>276.9970703</ele>
<time>2010-05-20T12:35:15Z</time>
<extensions>
<tp1:TrackPointExtension>
<tp1:hr>147</tp1:hr>
<tp1:cad>56</tp1:cad>
</tp1:TrackPointExtension>
</extensions>
</trkpt>
<trkpt lat="47.2298899" lon="4.9747825">
<ele>277.4776611</ele>
<time>2010-05-20T12:35:19Z</time>
<extensions>
<tp1:TrackPointExtension>
<tp1:hr>142</tp1:hr>
<tp1:cad>38</tp1:cad>
</tp1:TrackPointExtension>
</extensions>
</trkpt>
<trkpt lat="47.2299949" lon="4.9747944">
<ele>277.9582520</ele>
<time>2010-05-20T12:35:21Z</time>
<extensions>
<tp1:TrackPointExtension>
<tp1:hr>141</tp1:hr>
<tp1:cad>60</tp1:cad>
</tp1:TrackPointExtension>
</extensions>
</trkpt>
<trkpt lat="47.2303083" lon="4.9747349">
<ele>277.4776611</ele>
<time>2010-05-20T12:35:27Z</time>
<extensions>
<tp1:TrackPointExtension>
<tp1:hr>146</tp1:hr>
<tp1:cad>0</tp1:cad>
</tp1:TrackPointExtension>
</extensions>
</trkpt>
<trkpt lat="47.2303591" lon="4.9747243">
<ele>277.4776611</ele>
<time>2010-05-20T12:35:28Z</time>
<extensions>
<tp1:TrackPointExtension>
<tp1:hr>145</tp1:hr>
<tp1:cad>0</tp1:cad>
</tp1:TrackPointExtension>
</extensions>
</trkpt>
<trkpt lat="47.2305030" lon="4.9746724">
<ele>277.4776611</ele>
<time>2010-05-20T12:35:31Z</time>
<extensions>
<tp1:TrackPointExtension>
<tp1:hr>143</tp1:hr>
<tp1:cad>12</tp1:cad>
</tp1:TrackPointExtension>
</extensions>
</trkpt>
<trkpt lat="47.2308512" lon="4.9746015">
<ele>277.4776611</ele>
<time>2010-05-20T12:35:37Z</time>
<extensions>
<tp1:TrackPointExtension>
<tp1:hr>144</tp1:hr>
<tp1:cad>61</tp1:cad>
</tp1:TrackPointExtension>
</extensions>
</trkpt>
<trkpt lat="47.2313916" lon="4.9745240">
<ele>277.9582520</ele>
<time>2010-05-20T12:35:47Z</time>
<extensions>
<tp1:TrackPointExtension>
<tp1:hr>148</tp1:hr>
<tp1:cad>59</tp1:cad>
</tp1:TrackPointExtension>
</extensions>
</trkpt>
<trkpt lat="47.2314923" lon="4.9745274">
<ele>277.9582520</ele>
<time>2010-05-20T12:35:49Z</time>
<extensions>
<tp1:TrackPointExtension>
<tp1:hr>147</tp1:hr>
<tp1:cad>59</tp1:cad>
</tp1:TrackPointExtension>
</extensions>
</trkpt>
<trkpt lat="47.2317421" lon="4.9746142">
<ele>278.4389648</ele>
<time>2010-05-20T12:35:54Z</time>
<extensions>
<tp1:TrackPointExtension>
<tp1:hr>146</tp1:hr>
<tp1:cad>62</tp1:cad>
</tp1:TrackPointExtension>
</extensions>
</trkpt>
<trkpt lat="47.2318503" lon="4.9746620">
<ele>278.9196777</ele>
<time>2010-05-20T12:35:56Z</time>
<extensions>
<tp1:TrackPointExtension>
<tp1:hr>147</tp1:hr>
<tp1:cad>0</tp1:cad>
</tp1:TrackPointExtension>
</extensions>
</trkpt>
<trkpt lat="47.2321154" lon="4.9747549">
<ele>279.4002686</ele>
<time>2010-05-20T12:36:01Z</time>
<extensions>
<tp1:TrackPointExtension>
<tp1:hr>149</tp1:hr>
<tp1:cad>0</tp1:cad>
</tp1:TrackPointExtension>
</extensions>
</trkpt>
<trkpt lat="47.2322638" lon="4.9747894">
<ele>279.8808594</ele>
<time>2010-05-20T12:36:04Z</time>
<extensions>
<tp1:TrackPointExtension>
<tp1:hr>151</tp1:hr>
<tp1:cad>0</tp1:cad>
</tp1:TrackPointExtension>
</extensions>
</trkpt>
<trkpt lat="47.2323622" lon="4.9747921">
<ele>279.4002686</ele>
<time>2010-05-20T12:36:06Z</time>
<extensions>
<tp1:TrackPointExtension>
<tp1:hr>153</tp1:hr>
<tp1:cad>29</tp1:cad>
</tp1:TrackPointExtension>
</extensions>
</trkpt>
<trkpt lat="47.2326764" lon="4.9748625">
<ele>279.4002686</ele>
<time>2010-05-20T12:36:13Z</time>
<extensions>
<tp1:TrackPointExtension>
<tp1:hr>158</tp1:hr>
<tp1:cad>25</tp1:cad>
</tp1:TrackPointExtension>
</extensions>
</trkpt>
<trkpt lat="47.2328429" lon="4.9748776">
<ele>279.4002686</ele>
<time>2010-05-20T12:36:17Z</time>
<extensions>
<tp1:TrackPointExtension>
<tp1:hr>161</tp1:hr>
<tp1:cad>11</tp1:cad>
</tp1:TrackPointExtension>
</extensions>
</trkpt>
<trkpt lat="47.2330534" lon="4.9748217">
<ele>279.4002686</ele>
<time>2010-05-20T12:36:22Z</time>
<extensions>
<tp1:TrackPointExtension>
<tp1:hr>163</tp1:hr>
<tp1:cad>35</tp1:cad>
</tp1:TrackPointExtension>
</extensions>
</trkpt>
<trkpt lat="47.2331507" lon="4.9748413">
<ele>278.9196777</ele>
<time>2010-05-20T12:36:24Z</time>
<extensions>
<tp1:TrackPointExtension>
<tp1:hr>164</tp1:hr>
<tp1:cad>0</tp1:cad>
</tp1:TrackPointExtension>
</extensions>
</trkpt>
<trkpt lat="47.2335521" lon="4.9750303">
<ele>277.9582520</ele>
<time>2010-05-20T12:36:33Z</time>
<extensions>
<tp1:TrackPointExtension>
<tp1:hr>165</tp1:hr>
<tp1:cad>56</tp1:cad>
</tp1:TrackPointExtension>
</extensions>
</trkpt>
<trkpt lat="47.2339837" lon="4.9752572">
<ele>277.4776611</ele>
<time>2010-05-20T12:36:43Z</time>
<extensions>
<tp1:TrackPointExtension>
<tp1:hr>163</tp1:hr>
<tp1:cad>56</tp1:cad>
</tp1:TrackPointExtension>
</extensions>
</trkpt>
<trkpt lat="47.2343004" lon="4.9755840">
<ele>276.9970703</ele>
<time>2010-05-20T12:36:51Z</time>
<extensions>
<tp1:TrackPointExtension>
<tp1:hr>163</tp1:hr>
<tp1:cad>59</tp1:cad>
</tp1:TrackPointExtension>
</extensions>
</trkpt>
<trkpt lat="47.2347311" lon="4.9760024">
<ele>276.9970703</ele>
<time>2010-05-20T12:37:01Z</time>
<extensions>
<tp1:TrackPointExtension>
<tp1:hr>159</tp1:hr>
<tp1:cad>61</tp1:cad>
</tp1:TrackPointExtension>
</extensions>
</trkpt>
<trkpt lat="47.2350118" lon="4.9763001">
<ele>276.5163574</ele>
<time>2010-05-20T12:37:08Z</time>
<extensions>
<tp1:TrackPointExtension>
<tp1:hr>154</tp1:hr>
<tp1:cad>53</tp1:cad>
</tp1:TrackPointExtension>
</extensions>
</trkpt>
<trkpt lat="47.2350849" lon="4.9763869">
<ele>276.0356445</ele>
<time>2010-05-20T12:37:10Z</time>
<extensions>
<tp1:TrackPointExtension>
<tp1:hr>154</tp1:hr>
<tp1:cad>53</tp1:cad>
</tp1:TrackPointExtension>
</extensions>
</trkpt>
<trkpt lat="47.2353227" lon="4.9767615">
<ele>275.0744629</ele>
<time>2010-05-20T12:37:17Z</time>
<extensions>
<tp1:TrackPointExtension>
<tp1:hr>153</tp1:hr>
<tp1:cad>60</tp1:cad>
</tp1:TrackPointExtension>
</extensions>
</trkpt>
<trkpt lat="47.2355548" lon="4.9771381">
<ele>274.5937500</ele>
<time>2010-05-20T12:37:25Z</time>
<extensions>
<tp1:TrackPointExtension>
<tp1:hr>156</tp1:hr>
<tp1:cad>53</tp1:cad>
</tp1:TrackPointExtension>
</extensions>
</trkpt>
<trkpt lat="47.2356630" lon="4.9773205">
<ele>274.5937500</ele>
<time>2010-05-20T12:37:29Z</time>
<extensions>
<tp1:TrackPointExtension>
<tp1:hr>155</tp1:hr>
<tp1:cad>48</tp1:cad>
</tp1:TrackPointExtension>
</extensions>
</trkpt>
<trkpt lat="47.2356940" lon="4.9775416">
<ele>271.7097168</ele>
<time>2010-05-20T12:37:33Z</time>
<extensions>
<tp1:TrackPointExtension>
<tp1:hr>153</tp1:hr>
<tp1:cad>55</tp1:cad>
</tp1:TrackPointExtension>
</extensions>
</trkpt>
<trkpt lat="47.2358117" lon="4.9777176">
<ele>271.7097168</ele>
<time>2010-05-20T12:37:37Z</time>
<extensions>
<tp1:TrackPointExtension>
<tp1:hr>151</tp1:hr>
<tp1:cad>56</tp1:cad>
</tp1:TrackPointExtension>
</extensions>
</trkpt>
<trkpt lat="47.2359035" lon="4.9776991">
<ele>272.1904297</ele>
<time>2010-05-20T12:37:39Z</time>
<extensions>
<tp1:TrackPointExtension>
<tp1:hr>152</tp1:hr>
<tp1:cad>18</tp1:cad>
</tp1:TrackPointExtension>
</extensions>
</trkpt>
<trkpt lat="47.2359909" lon="4.9776566">
<ele>272.6711426</ele>
<time>2010-05-20T12:37:41Z</time>
<extensions>
<tp1:TrackPointExtension>
<tp1:hr>152</tp1:hr>
<tp1:cad>55</tp1:cad>
</tp1:TrackPointExtension>
</extensions>
</trkpt>
<trkpt lat="47.2362194" lon="4.9776281">
<ele>275.0744629</ele>
<time>2010-05-20T12:37:46Z</time>
<extensions>
<tp1:TrackPointExtension>
<tp1:hr>153</tp1:hr>
<tp1:cad>27</tp1:cad>
</tp1:TrackPointExtension>
</extensions>
</trkpt>
<trkpt lat="47.2365113" lon="4.9777277">
<ele>277.4776611</ele>
<time>2010-05-20T12:37:54Z</time>
<extensions>
<tp1:TrackPointExtension>
<tp1:hr>154</tp1:hr>
<tp1:cad>17</tp1:cad>
</tp1:TrackPointExtension>
</extensions>
</trkpt>
<trkpt lat="47.2368011" lon="4.9778921">
<ele>280.3616943</ele>
<time>2010-05-20T12:38:02Z</time>
<extensions>
<tp1:TrackPointExtension>
<tp1:hr>155</tp1:hr>
<tp1:cad>54</tp1:cad>
</tp1:TrackPointExtension>
</extensions>
</trkpt>
<trkpt lat="47.2370576" lon="4.9780268">
<ele>280.8424072</ele>
<time>2010-05-20T12:38:09Z</time>
<extensions>
<tp1:TrackPointExtension>
<tp1:hr>156</tp1:hr>
<tp1:cad>56</tp1:cad>
</tp1:TrackPointExtension>
</extensions>
</trkpt>
<trkpt lat="47.2373720" lon="4.9782071">
<ele>280.3616943</ele>
<time>2010-05-20T12:38:17Z</time>
<extensions>
<tp1:TrackPointExtension>
<tp1:hr>154</tp1:hr>
<tp1:cad>57</tp1:cad>
</tp1:TrackPointExtension>
</extensions>
</trkpt>
<trkpt lat="47.2377303" lon="4.9784456">
<ele>278.9196777</ele>
<time>2010-05-20T12:38:24Z</time>
<extensions>
<tp1:TrackPointExtension>
<tp1:hr>154</tp1:hr>
<tp1:cad>69</tp1:cad>
</tp1:TrackPointExtension>
</extensions>
</trkpt>
<trkpt lat="47.2380698" lon="4.9786546">
<ele>276.9970703</ele>
<time>2010-05-20T12:38:30Z</time>
<extensions>
<tp1:TrackPointExtension>
<tp1:hr>149</tp1:hr>
<tp1:cad>69</tp1:cad>
</tp1:TrackPointExtension>
</extensions>
</trkpt>
<trkpt lat="47.2384271" lon="4.9788398">
<ele>276.9970703</ele>
<time>2010-05-20T12:38:37Z</time>
<extensions>
<tp1:TrackPointExtension>
<tp1:hr>151</tp1:hr>
<tp1:cad>64</tp1:cad>
</tp1:TrackPointExtension>
</extensions>
</trkpt>
<trkpt lat="47.2388071" lon="4.9791045">
<ele>276.0356445</ele>
<time>2010-05-20T12:38:45Z</time>
<extensions>
<tp1:TrackPointExtension>
<tp1:hr>154</tp1:hr>
<tp1:cad>62</tp1:cad>
</tp1:TrackPointExtension>
</extensions>
</trkpt>
<trkpt lat="47.2391917" lon="4.9793846">
<ele>276.5163574</ele>
<time>2010-05-20T12:38:54Z</time>
<extensions>
<tp1:TrackPointExtension>
<tp1:hr>159</tp1:hr>
<tp1:cad>68</tp1:cad>
</tp1:TrackPointExtension>
</extensions>
</trkpt>
<trkpt lat="47.2394863" lon="4.9795530">
<ele>277.4776611</ele>
<time>2010-05-20T12:39:02Z</time>
<extensions>
<tp1:TrackPointExtension>
<tp1:hr>161</tp1:hr>
<tp1:cad>0</tp1:cad>
</tp1:TrackPointExtension>
</extensions>
</trkpt>
<trkpt lat="47.2397865" lon="4.9796679">
<ele>278.4389648</ele>
<time>2010-05-20T12:39:10Z</time>
<extensions>
<tp1:TrackPointExtension>
<tp1:hr>162</tp1:hr>
<tp1:cad>0</tp1:cad>
</tp1:TrackPointExtension>
</extensions>
</trkpt>
<trkpt lat="47.2401443" lon="4.9797587">
<ele>278.9196777</ele>
<time>2010-05-20T12:39:19Z</time>
<extensions>
<tp1:TrackPointExtension>
<tp1:hr>163</tp1:hr>
<tp1:cad>43</tp1:cad>
</tp1:TrackPointExtension>
</extensions>
</trkpt>
<trkpt lat="47.2404581" lon="4.9798825">
<ele>278.9196777</ele>
<time>2010-05-20T12:39:26Z</time>
<extensions>
<tp1:TrackPointExtension>
<tp1:hr>163</tp1:hr>
<tp1:cad>51</tp1:cad>
</tp1:TrackPointExtension>
</extensions>
</trkpt>
<trkpt lat="47.2410171" lon="4.9801321">
<ele>278.4389648</ele>
<time>2010-05-20T12:39:38Z</time>
<extensions>
<tp1:TrackPointExtension>
<tp1:hr>158</tp1:hr>
<tp1:cad>0</tp1:cad>
</tp1:TrackPointExtension>
</extensions>
</trkpt>
<trkpt lat="47.2414808" lon="4.9803037">
<ele>277.4776611</ele>
<time>2010-05-20T12:39:48Z</time>
<extensions>
<tp1:TrackPointExtension>
<tp1:hr>155</tp1:hr>
<tp1:cad>55</tp1:cad>
</tp1:TrackPointExtension>
</extensions>
</trkpt>
<trkpt lat="47.2419818" lon="4.9805094">
<ele>276.5163574</ele>
<time>2010-05-20T12:39:58Z</time>
<extensions>
<tp1:TrackPointExtension>
<tp1:hr>155</tp1:hr>
<tp1:cad>53</tp1:cad>
</tp1:TrackPointExtension>
</extensions>
</trkpt>
<trkpt lat="47.2423431" lon="4.9806590">
<ele>277.4776611</ele>
<time>2010-05-20T12:40:06Z</time>
<extensions>
<tp1:TrackPointExtension>
<tp1:hr>151</tp1:hr>
<tp1:cad>48</tp1:cad>
</tp1:TrackPointExtension>
</extensions>
</trkpt>
<trkpt lat="47.2424629" lon="4.9807526">
<ele>277.9582520</ele>
<time>2010-05-20T12:40:09Z</time>
<extensions>
<tp1:TrackPointExtension>
<tp1:hr>151</tp1:hr>
<tp1:cad>43</tp1:cad>
</tp1:TrackPointExtension>
</extensions>
</trkpt>
<trkpt lat="47.2426343" lon="4.9808097">
<ele>278.4389648</ele>
<time>2010-05-20T12:40:13Z</time>
<extensions>
<tp1:TrackPointExtension>
<tp1:hr>151</tp1:hr>
<tp1:cad>52</tp1:cad>
</tp1:TrackPointExtension>
</extensions>
</trkpt>
<trkpt lat="47.2429922" lon="4.9809729">
<ele>279.4002686</ele>
<time>2010-05-20T12:40:22Z</time>
<extensions>
<tp1:TrackPointExtension>
<tp1:hr>156</tp1:hr>
<tp1:cad>25</tp1:cad>
</tp1:TrackPointExtension>
</extensions>
</trkpt>
<trkpt lat="47.2432380" lon="4.9810955">
<ele>280.3616943</ele>
<time>2010-05-20T12:40:29Z</time>
<extensions>
<tp1:TrackPointExtension>
<tp1:hr>157</tp1:hr>
<tp1:cad>55</tp1:cad>
</tp1:TrackPointExtension>
</extensions>
</trkpt>
<trkpt lat="47.2434480" lon="4.9811784">
<ele>281.8035889</ele>
<time>2010-05-20T12:40:36Z</time>
<extensions>
<tp1:TrackPointExtension>
<tp1:hr>158</tp1:hr>
<tp1:cad>12</tp1:cad>
</tp1:TrackPointExtension>
</extensions>
</trkpt>
<trkpt lat="47.2437891" lon="4.9813103">
<ele>282.7650146</ele>
<time>2010-05-20T12:40:45Z</time>
<extensions>
<tp1:TrackPointExtension>
<tp1:hr>160</tp1:hr>
<tp1:cad>0</tp1:cad>
</tp1:TrackPointExtension>
</extensions>
</trkpt>
<trkpt lat="47.2441714" lon="4.9814526">
<ele>282.7650146</ele>
<time>2010-05-20T12:40:54Z</time>
<extensions>
<tp1:TrackPointExtension>
<tp1:hr>163</tp1:hr>
<tp1:cad>52</tp1:cad>
</tp1:TrackPointExtension>
</extensions>
</trkpt>
<trkpt lat="47.2444449" lon="4.9815521">
<ele>283.7261963</ele>
<time>2010-05-20T12:41:00Z</time>
<extensions>
<tp1:TrackPointExtension>
<tp1:hr>164</tp1:hr>
<tp1:cad>55</tp1:cad>
</tp1:TrackPointExtension>
</extensions>
</trkpt>
<trkpt lat="47.2445961" lon="4.9816319">
<ele>284.2069092</ele>
<time>2010-05-20T12:41:04Z</time>
<extensions>
<tp1:TrackPointExtension>
<tp1:hr>164</tp1:hr>
<tp1:cad>14</tp1:cad>
</tp1:TrackPointExtension>
</extensions>
</trkpt>
<trkpt lat="47.2446446" lon="4.9816519">
<ele>283.7261963</ele>
<time>2010-05-20T12:41:09Z</time>
<extensions>
<tp1:TrackPointExtension>
<tp1:hr>166</tp1:hr>
</tp1:TrackPointExtension>
</extensions>
</trkpt>
<trkpt lat="47.2446597" lon="4.9816605">
<ele>283.7261963</ele>
<time>2010-05-20T12:41:11Z</time>
<extensions>
<tp1:TrackPointExtension>
<tp1:hr>169</tp1:hr>
<tp1:cad>0</tp1:cad>
</tp1:TrackPointExtension>
</extensions>
</trkpt>
<trkpt lat="47.2447763" lon="4.9817012">
<ele>282.7650146</ele>
<time>2010-05-20T12:41:16Z</time>
<extensions>
<tp1:TrackPointExtension>
<tp1:hr>168</tp1:hr>
<tp1:cad>0</tp1:cad>
</tp1:TrackPointExtension>
</extensions>
</trkpt>
<trkpt lat="47.2450109" lon="4.9816957">
<ele>283.2456055</ele>
<time>2010-05-20T12:41:21Z</time>
<extensions>
<tp1:TrackPointExtension>
<tp1:hr>170</tp1:hr>
<tp1:cad>56</tp1:cad>
</tp1:TrackPointExtension>
</extensions>
</trkpt>
<trkpt lat="47.2451991" lon="4.9817650">
<ele>283.7261963</ele>
<time>2010-05-20T12:41:25Z</time>
<extensions>
<tp1:TrackPointExtension>
<tp1:hr>175</tp1:hr>
<tp1:cad>52</tp1:cad>
</tp1:TrackPointExtension>
</extensions>
</trkpt>
<trkpt lat="47.2456093" lon="4.9819474">
<ele>284.2069092</ele>
<time>2010-05-20T12:41:34Z</time>
<extensions>
<tp1:TrackPointExtension>
<tp1:hr>173</tp1:hr>
<tp1:cad>52</tp1:cad>
</tp1:TrackPointExtension>
</extensions>
</trkpt>
<trkpt lat="47.2458891" lon="4.9820614">
<ele>283.7261963</ele>
<time>2010-05-20T12:41:39Z</time>
<extensions>
<tp1:TrackPointExtension>
<tp1:hr>173</tp1:hr>
<tp1:cad>0</tp1:cad>
</tp1:TrackPointExtension>
</extensions>
</trkpt>
<trkpt lat="47.2460941" lon="4.9821380">
<ele>283.2456055</ele>
<time>2010-05-20T12:41:42Z</time>
<extensions>
<tp1:TrackPointExtension>
<tp1:hr>176</tp1:hr>
<tp1:cad>85</tp1:cad>
</tp1:TrackPointExtension>
</extensions>
</trkpt>
<trkpt lat="47.2464116" lon="4.9823123">
<ele>282.2843018</ele>
<time>2010-05-20T12:41:47Z</time>
<extensions>
<tp1:TrackPointExtension>
<tp1:hr>184</tp1:hr>
<tp1:cad>56</tp1:cad>
</tp1:TrackPointExtension>
</extensions>
</trkpt>
<trkpt lat="47.2469131" lon="4.9825151">
<ele>281.3229980</ele>
<time>2010-05-20T12:41:55Z</time>
<extensions>
<tp1:TrackPointExtension>
<tp1:hr>185</tp1:hr>
<tp1:cad>54</tp1:cad>
</tp1:TrackPointExtension>
</extensions>
</trkpt>
<trkpt lat="47.2474078" lon="4.9826165">
<ele>280.3616943</ele>
<time>2010-05-20T12:42:03Z</time>
<extensions>
<tp1:TrackPointExtension>
<tp1:hr>182</tp1:hr>
<tp1:cad>50</tp1:cad>
</tp1:TrackPointExtension>
</extensions>
</trkpt>
<trkpt lat="47.2478092" lon="4.9827373">
<ele>279.4002686</ele>
<time>2010-05-20T12:42:10Z</time>
<extensions>
<tp1:TrackPointExtension>
<tp1:hr>178</tp1:hr>
<tp1:cad>48</tp1:cad>
</tp1:TrackPointExtension>
</extensions>
</trkpt>
<trkpt lat="47.2483505" lon="4.9829916">
<ele>278.9196777</ele>
<time>2010-05-20T12:42:20Z</time>
<extensions>
<tp1:TrackPointExtension>
<tp1:hr>175</tp1:hr>
<tp1:cad>46</tp1:cad>
</tp1:TrackPointExtension>
</extensions>
</trkpt>
<trkpt lat="47.2485954" lon="4.9831080">
<ele>279.4002686</ele>
<time>2010-05-20T12:42:25Z</time>
<extensions>
<tp1:TrackPointExtension>
<tp1:hr>170</tp1:hr>
<tp1:cad>44</tp1:cad>
</tp1:TrackPointExtension>
</extensions>
</trkpt>
<trkpt lat="47.2490023" lon="4.9833106">
<ele>279.8808594</ele>
<time>2010-05-20T12:42:34Z</time>
<extensions>
<tp1:TrackPointExtension>
<tp1:hr>165</tp1:hr>
<tp1:cad>15</tp1:cad>
</tp1:TrackPointExtension>
</extensions>
</trkpt>
<trkpt lat="47.2494857" lon="4.9835292">
<ele>280.3616943</ele>
<time>2010-05-20T12:42:45Z</time>
<extensions>
<tp1:TrackPointExtension>
<tp1:hr>167</tp1:hr>
<tp1:cad>47</tp1:cad>
</tp1:TrackPointExtension>
</extensions>
</trkpt>
<trkpt lat="47.2499325" lon="4.9837422">
<ele>281.3229980</ele>
<time>2010-05-20T12:42:56Z</time>
<extensions>
<tp1:TrackPointExtension>
<tp1:hr>165</tp1:hr>
<tp1:cad>45</tp1:cad>
</tp1:TrackPointExtension>
</extensions>
</trkpt>
<trkpt lat="47.2503812" lon="4.9839379">
<ele>281.8035889</ele>
<time>2010-05-20T12:43:06Z</time>
<extensions>
<tp1:TrackPointExtension>
<tp1:hr>167</tp1:hr>
<tp1:cad>50</tp1:cad>
</tp1:TrackPointExtension>
</extensions>
</trkpt>
<trkpt lat="47.2509339" lon="4.9841152">
<ele>282.7650146</ele>
<time>2010-05-20T12:43:18Z</time>
<extensions>
<tp1:TrackPointExtension>
<tp1:hr>171</tp1:hr>
<tp1:cad>50</tp1:cad>
</tp1:TrackPointExtension>
</extensions>
</trkpt>
<trkpt lat="47.2513836" lon="4.9841847">
<ele>282.7650146</ele>
<time>2010-05-20T12:43:28Z</time>
<extensions>
<tp1:TrackPointExtension>
<tp1:hr>172</tp1:hr>
<tp1:cad>47</tp1:cad>
</tp1:TrackPointExtension>
</extensions>
</trkpt>
<trkpt lat="47.2517731" lon="4.9843094">
<ele>283.7261963</ele>
<time>2010-05-20T12:43:37Z</time>
<extensions>
<tp1:TrackPointExtension>
<tp1:hr>174</tp1:hr>
<tp1:cad>48</tp1:cad>
</tp1:TrackPointExtension>
</extensions>
</trkpt>
<trkpt lat="47.2518606" lon="4.9843440">
<ele>283.7261963</ele>
<time>2010-05-20T12:43:39Z</time>
<extensions>
<tp1:TrackPointExtension>
<tp1:hr>174</tp1:hr>
<tp1:cad>45</tp1:cad>
</tp1:TrackPointExtension>
</extensions>
</trkpt>
<trkpt lat="47.2519435" lon="4.9843911">
<ele>283.7261963</ele>
<time>2010-05-20T12:43:41Z</time>
<extensions>
<tp1:TrackPointExtension>
<tp1:hr>175</tp1:hr>
<tp1:cad>46</tp1:cad>
</tp1:TrackPointExtension>
</extensions>
</trkpt>
<trkpt lat="47.2523068" lon="4.9845384">
<ele>282.7650146</ele>
<time>2010-05-20T12:43:50Z</time>
<extensions>
<tp1:TrackPointExtension>
<tp1:hr>173</tp1:hr>
<tp1:cad>23</tp1:cad>
</tp1:TrackPointExtension>
</extensions>
</trkpt>
<trkpt lat="47.2524290" lon="4.9845918">
<ele>282.7650146</ele>
<time>2010-05-20T12:43:53Z</time>
<extensions>
<tp1:TrackPointExtension>
<tp1:hr>174</tp1:hr>
<tp1:cad>0</tp1:cad>
</tp1:TrackPointExtension>
</extensions>
</trkpt>
<trkpt lat="47.2525067" lon="4.9846063">
<ele>282.2843018</ele>
<time>2010-05-20T12:43:55Z</time>
<extensions>
<tp1:TrackPointExtension>
<tp1:hr>174</tp1:hr>
<tp1:cad>0</tp1:cad>
</tp1:TrackPointExtension>
</extensions>
</trkpt>
<trkpt lat="47.2528110" lon="4.9847052">
<ele>281.8035889</ele>
<time>2010-05-20T12:44:02Z</time>
<extensions>
<tp1:TrackPointExtension>
<tp1:hr>179</tp1:hr>
<tp1:cad>57</tp1:cad>
</tp1:TrackPointExtension>
</extensions>
</trkpt>
<trkpt lat="47.2531876" lon="4.9848016">
<ele>280.8424072</ele>
<time>2010-05-20T12:44:10Z</time>
<extensions>
<tp1:TrackPointExtension>
<tp1:hr>182</tp1:hr>
<tp1:cad>0</tp1:cad>
</tp1:TrackPointExtension>
</extensions>
</trkpt>
<trkpt lat="47.2535834" lon="4.9848958">
<ele>279.8808594</ele>
<time>2010-05-20T12:44:18Z</time>
<extensions>
<tp1:TrackPointExtension>
<tp1:hr>176</tp1:hr>
<tp1:cad>0</tp1:cad>
</tp1:TrackPointExtension>
</extensions>
</trkpt>
<trkpt lat="47.2540933" lon="4.9850895">
<ele>278.9196777</ele>
<time>2010-05-20T12:44:28Z</time>
<extensions>
<tp1:TrackPointExtension>
<tp1:hr>172</tp1:hr>
<tp1:cad>42</tp1:cad>
</tp1:TrackPointExtension>
</extensions>
</trkpt>
<trkpt lat="47.2546487" lon="4.9852719">
<ele>276.9970703</ele>
<time>2010-05-20T12:44:38Z</time>
<extensions>
<tp1:TrackPointExtension>
<tp1:hr>168</tp1:hr>
<tp1:cad>33</tp1:cad>
</tp1:TrackPointExtension>
</extensions>
</trkpt>
<trkpt lat="47.2552130" lon="4.9854206">
<ele>276.9970703</ele>
<time>2010-05-20T12:44:48Z</time>
<extensions>
<tp1:TrackPointExtension>
<tp1:hr>163</tp1:hr>


Partager le fichier

Télécharger Nouvellecours 1_course.gpx

Télécharger le fichier (178 Ko)